Terminal Aerodrome Forecast
Issued by NWS Sioux Falls, SD

Home | Current Version | Previous Version | Text Only | Print | Product List | Glossary Off
Versions: 1 2 3 4 5 6 7 8 9 10 11 12 13 14 15 16

000
FTUS43 KFSD 170521
TAFSUX
TAF
KSUX 170521Z 1706/1806 14010KT P6SM BKN200 WS016/21040KT
     FM170900 13009KT 6SM -SN OVC080
     FM171400 25005KT P6SM FEW200
     FM171800 29012KT P6SM FEW200
     FM180100 25004KT P6SM FEW250
     FM180300 12004KT P6SM SCT150=

USA.gov is the U.S. government's official web portal to all federal, state and local government web resources and services.